createdAt,value
2019-04-21T00:01:08.737Z,99.90
2019-04-21T00:03:45.356Z,99.90
2019-04-21T00:06:32.439Z,99.90
2019-04-21T00:09:11.199Z,99.90
2019-04-21T00:11:37.777Z,99.90
2019-04-21T00:14:01.955Z,99.90
2019-04-21T00:16:32.726Z,99.90
2019-04-21T00:19:08.138Z,99.90
2019-04-21T00:21:38.602Z,99.90
2019-04-21T00:24:23.921Z,99.90
2019-04-21T00:27:02.510Z,99.90
2019-04-21T00:32:08.574Z,99.90
2019-04-21T00:34:23.773Z,99.90
2019-04-21T00:37:08.518Z,99.90
2019-04-21T00:42:19.468Z,99.90
2019-04-21T00:44:51.165Z,99.90
2019-04-21T00:47:33.027Z,99.90
2019-04-21T00:50:00.793Z,99.90
2019-04-21T00:55:35.539Z,99.90
2019-04-21T00:58:12.640Z,99.90
2019-04-21T01:00:32.335Z,99.90
2019-04-21T01:03:13.097Z,99.90
2019-04-21T01:05:41.120Z,99.90
2019-04-21T01:08:11.514Z,99.90
2019-04-21T01:10:34.928Z,99.90
2019-04-21T01:13:23.398Z,99.90
2019-04-21T01:18:20.553Z,99.90
2019-04-21T01:20:32.741Z,99.90
2019-04-21T01:23:04.360Z,99.90
2019-04-21T01:25:43.722Z,99.90
2019-04-21T01:28:24.143Z,99.90
2019-04-21T01:31:00.968Z,99.90
2019-04-21T01:33:38.203Z,99.90
2019-04-21T01:36:03.737Z,99.90
2019-04-21T01:38:44.334Z,99.90
2019-04-21T01:41:17.968Z,99.90
2019-04-21T01:43:39.507Z,99.90
2019-04-21T01:46:14.156Z,99.90
2019-04-21T01:48:44.093Z,99.90
2019-04-21T01:51:18.470Z,99.90
2019-04-21T01:54:08.864Z,99.90
2019-04-21T01:56:46.222Z,99.90
2019-04-21T01:59:03.758Z,99.90
2019-04-21T02:01:52.732Z,99.90
2019-04-21T02:04:29.276Z,99.90
2019-04-21T02:06:59.979Z,99.90
2019-04-21T02:09:33.675Z,99.90
2019-04-21T02:12:12.314Z,99.90
2019-04-21T02:14:45.860Z,99.90
2019-04-21T02:17:14.716Z,99.90
2019-04-21T02:19:42.195Z,99.90
2019-04-21T02:22:21.493Z,99.90
2019-04-21T02:24:56.813Z,99.90
2019-04-21T02:27:26.434Z,99.90
2019-04-21T02:30:00.154Z,99.90
2019-04-21T02:32:44.212Z,99.90
2019-04-21T02:35:24.502Z,99.90
2019-04-21T02:37:54.868Z,99.90
2019-04-21T02:43:03.152Z,99.90
2019-04-21T02:45:28.438Z,99.90
2019-04-21T02:53:05.242Z,99.90
2019-04-21T02:55:37.432Z,99.90
2019-04-21T02:58:20.824Z,99.90
2019-04-21T03:00:46.578Z,99.90
2019-04-21T03:03:31.700Z,99.90
2019-04-21T03:05:58.614Z,99.90
2019-04-21T03:08:43.019Z,99.90
2019-04-21T03:11:11.948Z,99.90
2019-04-21T03:14:03.426Z,99.90
2019-04-21T03:16:17.115Z,99.90
2019-04-21T03:18:48.282Z,99.90
2019-04-21T03:26:28.965Z,99.90
2019-04-21T03:28:54.547Z,99.90
2019-04-21T03:36:47.644Z,99.90
2019-04-21T03:39:20.168Z,99.90
2019-04-21T03:41:37.990Z,99.90
2019-04-21T03:44:18.091Z,99.90
2019-04-21T03:46:56.058Z,99.90
2019-04-21T03:49:20.811Z,99.90
2019-04-21T03:54:15.611Z,99.90
2019-04-21T03:59:21.506Z,99.90
2019-04-21T04:02:05.880Z,99.90
2019-04-21T04:04:52.701Z,99.90
2019-04-21T04:07:49.688Z,99.90
2019-04-21T04:10:11.681Z,99.90
2019-04-21T04:12:52.921Z,99.90
2019-04-21T04:18:00.889Z,99.90
2019-04-21T04:20:28.076Z,99.90
2019-04-21T04:23:02.996Z,99.90
2019-04-21T04:28:10.166Z,99.90
2019-04-21T04:30:39.907Z,99.90
2019-04-21T04:33:21.305Z,99.90
2019-04-21T04:38:22.288Z,99.90
2019-04-21T04:43:52.768Z,99.90
2019-04-21T04:45:59.179Z,99.90
2019-04-21T04:48:34.872Z,99.90
2019-04-21T04:56:12.485Z,99.90
2019-04-21T05:06:42.003Z,99.90
2019-04-21T05:14:07.593Z,99.90
2019-04-21T05:19:20.198Z,99.90
2019-04-21T05:21:42.182Z,99.90
2019-04-21T05:24:01.365Z,99.90
2019-04-21T05:26:33.438Z,99.90
2019-04-21T05:29:06.982Z,99.90
2019-04-21T05:32:07.874Z,99.90
2019-04-21T05:34:38.945Z,99.90
2019-04-21T05:37:20.320Z,99.90
2019-04-21T05:39:48.032Z,99.90
2019-04-21T05:42:15.314Z,99.90
2019-04-21T05:45:10.609Z,99.90
2019-04-21T05:47:57.912Z,99.90
2019-04-21T05:50:07.512Z,99.90
2019-04-21T05:52:36.665Z,99.90
2019-04-21T05:55:22.273Z,99.90
2019-04-21T05:57:47.910Z,99.90
2019-04-21T06:00:23.545Z,99.90
2019-04-21T06:03:00.665Z,99.90
2019-04-21T06:05:39.044Z,99.90
2019-04-21T06:08:00.394Z,99.90
2019-04-21T06:10:38.017Z,99.90
2019-04-21T06:13:13.070Z,99.90
2019-04-21T06:15:48.496Z,99.90
2019-04-21T06:20:51.146Z,99.90
2019-04-21T06:23:20.400Z,99.90
2019-04-21T06:28:30.316Z,99.90
2019-04-21T06:31:07.141Z,99.90
2019-04-21T06:33:39.466Z,99.90
2019-04-21T06:41:27.787Z,99.90
2019-04-21T06:44:05.651Z,99.90
2019-04-21T06:46:33.415Z,99.90
2019-04-21T06:49:01.259Z,99.90
2019-04-21T06:51:33.747Z,99.90
2019-04-21T06:59:22.166Z,99.90
2019-04-21T07:01:52.446Z,99.90
2019-04-21T07:06:52.042Z,99.90
2019-04-21T07:09:31.647Z,99.90
2019-04-21T07:11:48.806Z,99.90
2019-04-21T07:17:09.419Z,99.90
2019-04-21T07:19:34.929Z,99.90
2019-04-21T07:22:03.074Z,99.90
2019-04-21T07:24:41.774Z,99.90
2019-04-21T07:27:11.786Z,99.90
2019-04-21T07:29:47.437Z,99.90
2019-04-21T07:32:15.340Z,99.20
2019-04-21T07:34:55.560Z,99.20
2019-04-21T07:37:18.547Z,98.50
2019-04-21T07:39:49.872Z,96.30
2019-04-21T07:42:19.274Z,96.90
2019-04-21T07:44:53.542Z,97.40
2019-04-21T07:47:32.638Z,96.10
2019-04-21T07:50:14.952Z,94.80
2019-04-21T07:53:01.005Z,93.70
2019-04-21T07:58:02.872Z,91.10
2019-04-21T08:00:45.304Z,90.90
2019-04-21T08:03:12.883Z,90.20
2019-04-21T08:06:00.669Z,89.30
2019-04-21T08:08:12.421Z,88.20
2019-04-21T08:10:44.119Z,85.70
2019-04-21T08:13:28.872Z,85.60
2019-04-21T08:15:51.057Z,85.70
2019-04-21T08:18:30.090Z,83.10
2019-04-21T08:20:54.760Z,81.60
2019-04-21T08:23:34.093Z,78.30
2019-04-21T08:26:06.471Z,77.20
2019-04-21T08:28:42.710Z,75.70
2019-04-21T08:31:09.955Z,72.80
2019-04-21T08:33:50.294Z,73.00
2019-04-21T08:38:49.614Z,67.40
2019-04-21T08:41:18.157Z,68.10
2019-04-21T08:43:51.309Z,66.00
2019-04-21T08:46:25.370Z,62.80
2019-04-21T08:48:58.000Z,61.10
2019-04-21T08:51:34.029Z,61.20
2019-04-21T08:54:09.414Z,60.10
2019-04-21T08:56:34.353Z,58.20
2019-04-21T08:59:19.243Z,58.40
2019-04-21T09:01:57.296Z,56.20
2019-04-21T09:04:24.481Z,55.60
2019-04-21T09:07:05.170Z,54.20
2019-04-21T09:09:34.991Z,54.70
2019-04-21T09:12:04.405Z,52.10
2019-04-21T09:14:37.095Z,51.60
2019-04-21T09:17:08.037Z,51.20
2019-04-21T09:19:51.907Z,51.00
2019-04-21T09:22:12.958Z,48.90
2019-04-21T09:24:49.798Z,48.60
2019-04-21T09:27:14.261Z,48.20
2019-04-21T09:29:40.568Z,44.40
2019-04-21T09:32:12.521Z,41.70
2019-04-21T09:34:43.555Z,42.70
2019-04-21T09:37:24.331Z,41.70
2019-04-21T09:39:48.779Z,40.20
2019-04-21T09:42:19.684Z,41.90
2019-04-21T09:44:53.804Z,40.60
2019-04-21T09:47:24.931Z,41.60
2019-04-21T09:49:56.277Z,40.70
2019-04-21T09:52:37.549Z,40.90
2019-04-21T09:55:06.941Z,39.90
2019-04-21T09:57:41.281Z,38.40
2019-04-21T10:00:17.966Z,36.10
2019-04-21T10:02:54.725Z,32.80
2019-04-21T10:05:16.786Z,30.40
2019-04-21T10:07:48.932Z,29.30
2019-04-21T10:10:22.948Z,27.00
2019-04-21T10:12:54.075Z,26.30
2019-04-21T10:15:27.014Z,24.50
2019-04-21T10:18:00.584Z,23.20
2019-04-21T10:20:32.806Z,23.00
2019-04-21T10:23:05.036Z,23.00
2019-04-21T10:25:36.786Z,23.20
2019-04-21T10:28:07.880Z,23.40
2019-04-21T10:30:38.818Z,23.10
2019-04-21T10:33:10.410Z,22.50
2019-04-21T10:35:41.543Z,21.90
2019-04-21T10:38:22.976Z,22.20
2019-04-21T10:40:45.999Z,21.30
2019-04-21T10:43:21.692Z,21.70
2019-04-21T10:45:50.719Z,22.70
2019-04-21T10:48:23.110Z,22.40
2019-04-21T10:50:54.927Z,20.90
2019-04-21T10:53:28.985Z,22.50
2019-04-21T10:56:12.207Z,22.00
2019-04-21T10:58:34.394Z,23.10
2019-04-21T11:01:14.075Z,21.60
2019-04-21T11:03:46.951Z,21.60
2019-04-21T11:06:19.225Z,22.50
2019-04-21T11:08:55.147Z,22.50
2019-04-21T11:11:23.872Z,21.90
2019-04-21T11:13:55.112Z,22.80
2019-04-21T11:16:26.934Z,22.20
2019-04-21T11:18:58.144Z,23.40
2019-04-21T11:21:29.340Z,23.50
2019-04-21T11:24:01.728Z,23.40
2019-04-21T11:26:33.793Z,23.60
2019-04-21T11:29:05.183Z,23.60
2019-04-21T11:31:36.886Z,22.80
2019-04-21T11:34:09.137Z,21.70
2019-04-21T11:36:40.601Z,21.80
2019-04-21T11:39:27.221Z,21.10
2019-04-21T11:41:49.803Z,22.00
2019-04-21T11:44:24.246Z,20.80
2019-04-21T11:46:54.385Z,21.40
2019-04-21T11:49:27.666Z,21.10
2019-04-21T11:51:58.716Z,21.00
2019-04-21T11:54:30.936Z,20.50
2019-04-21T11:57:11.447Z,22.30
2019-04-21T11:59:35.610Z,20.90
2019-04-21T12:02:07.936Z,20.80
2019-04-21T12:04:39.287Z,20.40
2019-04-21T12:07:11.413Z,19.90
2019-04-21T12:09:43.693Z,20.10
2019-04-21T12:12:15.131Z,20.40
2019-04-21T12:14:46.090Z,19.70
2019-04-21T12:17:18.320Z,19.60
2019-04-21T12:19:50.664Z,19.60
2019-04-21T12:22:26.497Z,20.40
2019-04-21T12:24:55.489Z,20.60
2019-04-21T12:27:27.740Z,19.60
2019-04-21T12:29:59.669Z,20.30
2019-04-21T12:32:48.648Z,19.30
2019-04-21T12:35:19.911Z,18.50
2019-04-21T12:37:51.092Z,19.00
2019-04-21T12:40:22.190Z,18.90
2019-04-21T12:42:54.779Z,19.20
2019-04-21T12:45:26.121Z,19.50
2019-04-21T12:47:57.924Z,18.70
2019-04-21T12:50:30.078Z,18.20
2019-04-21T12:53:01.029Z,19.30
2019-04-21T12:55:37.427Z,19.30
2019-04-21T12:58:05.534Z,18.60
2019-04-21T13:00:36.811Z,18.70
2019-04-21T13:03:07.974Z,19.50
2019-04-21T13:05:39.982Z,19.00
2019-04-21T13:08:11.481Z,18.80
2019-04-21T13:10:42.646Z,18.10
2019-04-21T13:13:14.368Z,17.10
2019-04-21T13:15:45.484Z,16.70
2019-04-21T13:18:16.571Z,18.40
2019-04-21T13:20:48.515Z,19.00
2019-04-21T13:23:20.858Z,18.80
2019-04-21T13:25:52.014Z,18.30
2019-04-21T13:28:23.034Z,17.60
2019-04-21T13:30:54.099Z,17.90
2019-04-21T13:33:25.330Z,16.60
2019-04-21T13:35:57.235Z,16.30
2019-04-21T13:38:36.404Z,16.90
2019-04-21T13:41:20.384Z,16.90
2019-04-21T13:43:35.152Z,17.10
2019-04-21T13:46:07.953Z,16.30
2019-04-21T13:48:40.358Z,16.90
2019-04-21T13:51:11.408Z,18.40
2019-04-21T13:53:43.795Z,17.70
2019-04-21T13:56:16.189Z,16.90
2019-04-21T13:58:48.377Z,16.70
2019-04-21T14:01:19.469Z,17.40
2019-04-21T14:03:51.456Z,18.50
2019-04-21T14:06:22.634Z,17.90
2019-04-21T14:08:56.993Z,16.80
2019-04-21T14:11:29.270Z,17.20
2019-04-21T14:14:00.621Z,17.10
2019-04-21T14:16:33.928Z,17.20
2019-04-21T14:19:05.620Z,17.40
2019-04-21T14:21:37.080Z,16.90
2019-04-21T14:24:08.899Z,17.00
2019-04-21T14:26:40.423Z,17.10
2019-04-21T14:29:11.571Z,16.10
2019-04-21T14:31:42.504Z,16.00
2019-04-21T14:34:14.342Z,17.20
2019-04-21T14:36:46.588Z,17.40
2019-04-21T14:39:18.565Z,17.00
2019-04-21T14:41:50.520Z,17.50
2019-04-21T14:44:22.762Z,17.40
2019-04-21T14:46:55.446Z,17.10
2019-04-21T14:49:29.090Z,17.20
2019-04-21T14:52:03.040Z,17.30
2019-04-21T14:54:33.833Z,16.80
2019-04-21T14:57:05.366Z,17.60
2019-04-21T14:59:37.215Z,17.00
2019-04-21T15:02:09.759Z,17.00
2019-04-21T15:04:41.709Z,17.30
2019-04-21T15:07:13.052Z,17.20
2019-04-21T15:09:44.649Z,17.10
2019-04-21T15:12:16.214Z,17.30
2019-04-21T15:14:47.697Z,17.00
2019-04-21T15:17:20.816Z,17.60
2019-04-21T15:20:01.896Z,17.40
2019-04-21T15:22:24.145Z,17.10
2019-04-21T15:24:56.324Z,18.00
2019-04-21T15:27:27.565Z,17.90
2019-04-21T15:29:58.707Z,17.80
2019-04-21T15:32:30.617Z,17.80
2019-04-21T15:35:02.321Z,17.90
2019-04-21T15:37:35.754Z,17.40
2019-04-21T15:40:21.028Z,17.60
2019-04-21T15:42:42.101Z,18.30
2019-04-21T15:45:14.607Z,18.50
2019-04-21T15:47:46.170Z,18.60
2019-04-21T15:50:20.141Z,18.70
2019-04-21T15:52:53.765Z,18.30
2019-04-21T15:55:42.545Z,18.90
2019-04-21T15:58:20.555Z,18.90
2019-04-21T16:00:54.429Z,19.40
2019-04-21T16:03:26.737Z,19.00
2019-04-21T16:05:59.334Z,18.80
2019-04-21T16:08:31.202Z,19.00
2019-04-21T16:11:04.526Z,18.40
2019-04-21T16:13:34.978Z,19.10
2019-04-21T16:16:08.405Z,19.00
2019-04-21T16:18:40.337Z,18.80
2019-04-21T16:21:11.816Z,19.20
2019-04-21T16:23:44.385Z,20.20
2019-04-21T16:26:16.925Z,19.90
2019-04-21T16:28:49.089Z,20.40
2019-04-21T16:31:20.374Z,19.50
2019-04-21T16:33:51.488Z,20.30
2019-04-21T16:36:23.311Z,20.10
2019-04-21T16:38:55.612Z,19.90
2019-04-21T16:41:26.728Z,19.80
2019-04-21T16:43:58.919Z,19.60
2019-04-21T16:46:31.638Z,20.30
2019-04-21T16:49:04.068Z,20.10
2019-04-21T16:51:36.054Z,20.60
2019-04-21T16:54:10.071Z,20.90
2019-04-21T16:56:45.693Z,22.00
2019-04-21T16:59:20.971Z,22.80
2019-04-21T17:01:52.499Z,22.50
2019-04-21T17:04:24.679Z,23.70
2019-04-21T17:06:55.655Z,24.00
2019-04-21T17:09:28.527Z,24.40
2019-04-21T17:12:04.040Z,24.90
2019-04-21T17:14:51.293Z,25.50
2019-04-21T17:17:27.215Z,26.00
2019-04-21T17:19:43.848Z,25.90
2019-04-21T17:22:13.677Z,26.20
2019-04-21T17:24:46.390Z,27.40
2019-04-21T17:27:17.625Z,27.60
2019-04-21T17:29:48.736Z,28.00
2019-04-21T17:32:20.546Z,28.70
2019-04-21T17:34:52.158Z,29.00
2019-04-21T17:37:25.425Z,28.50
2019-04-21T17:39:56.864Z,28.60
2019-04-21T17:42:37.849Z,28.90
2019-04-21T17:45:01.288Z,29.30
2019-04-21T17:47:44.329Z,29.50
2019-04-21T17:50:21.264Z,29.70
2019-04-21T17:53:04.969Z,30.10
2019-04-21T17:55:36.745Z,30.80
2019-04-21T17:58:21.965Z,31.30
2019-04-21T18:01:10.356Z,31.60
2019-04-21T18:06:02.479Z,32.30
2019-04-21T18:08:43.023Z,33.40
2019-04-21T18:11:03.324Z,33.20
2019-04-21T18:13:26.829Z,33.90
2019-04-21T18:16:09.636Z,35.00
2019-04-21T18:18:30.852Z,33.20
2019-04-21T18:21:04.596Z,35.20
2019-04-21T18:23:47.217Z,37.00
2019-04-21T18:26:23.516Z,36.30
2019-04-21T18:28:40.983Z,37.40
2019-04-21T18:31:14.373Z,37.70
2019-04-21T18:33:49.076Z,38.50
2019-04-21T18:36:31.289Z,39.10
2019-04-21T18:39:13.566Z,39.80
2019-04-21T18:41:36.546Z,40.80
2019-04-21T18:44:45.859Z,41.10
2019-04-21T18:47:10.637Z,42.30
2019-04-21T18:49:26.982Z,41.00
2019-04-21T18:52:18.322Z,41.60
2019-04-21T18:54:54.939Z,42.90
2019-04-21T18:57:24.337Z,42.90
2019-04-21T18:59:48.802Z,43.40
2019-04-21T19:02:20.516Z,43.90
2019-04-21T19:04:53.844Z,43.10
2019-04-21T19:07:37.816Z,43.10
2019-04-21T19:10:22.301Z,44.10
2019-04-21T19:13:15.978Z,44.50
2019-04-21T19:15:17.871Z,45.70
2019-04-21T19:20:32.768Z,46.60
2019-04-21T19:22:58.751Z,46.20
2019-04-21T19:25:31.527Z,47.20
2019-04-21T19:27:59.027Z,48.00
2019-04-21T19:30:50.970Z,48.10
2019-04-21T19:33:14.413Z,49.20
2019-04-21T19:35:35.168Z,49.80
2019-04-21T19:38:10.487Z,49.90
2019-04-21T19:40:54.477Z,50.50
2019-04-21T19:43:31.848Z,50.60
2019-04-21T19:45:59.455Z,50.80
2019-04-21T19:48:36.319Z,51.40
2019-04-21T19:51:05.644Z,52.10
2019-04-21T19:53:37.146Z,52.50
2019-04-21T19:55:56.176Z,53.00
2019-04-21T19:58:32.997Z,53.70
2019-04-21T20:01:01.504Z,53.70
2019-04-21T20:03:34.682Z,54.10
2019-04-21T20:06:14.884Z,54.50
2019-04-21T20:09:00.676Z,55.10
2019-04-21T20:11:31.836Z,55.80
2019-04-21T20:14:33.971Z,55.30
2019-04-21T20:16:37.468Z,56.30
2019-04-21T20:18:55.331Z,56.80
2019-04-21T20:21:22.908Z,56.70
2019-04-21T20:23:57.509Z,56.70
2019-04-21T20:26:30.372Z,56.90
2019-04-21T20:29:14.836Z,57.90
2019-04-21T20:31:46.980Z,57.90
2019-04-21T20:34:26.965Z,57.80
2019-04-21T20:36:57.986Z,57.90
2019-04-21T20:39:16.539Z,58.40
2019-04-21T20:41:55.308Z,58.70
2019-04-21T20:44:29.600Z,59.30
2019-04-21T20:47:02.315Z,60.50
2019-04-21T20:49:34.205Z,59.90
2019-04-21T20:52:17.217Z,60.20
2019-04-21T20:54:41.019Z,60.40
2019-04-21T20:57:18.315Z,60.40
2019-04-21T20:59:43.865Z,62.00
2019-04-21T21:02:19.962Z,63.90
2019-04-21T21:04:43.400Z,64.80
2019-04-21T21:07:40.007Z,63.90
2019-04-21T21:10:00.127Z,66.20
2019-04-21T21:12:37.309Z,67.50
2019-04-21T21:15:00.147Z,68.20
2019-04-21T21:17:49.923Z,69.40
2019-04-21T21:20:14.314Z,70.10
2019-04-21T21:22:43.924Z,71.80
2019-04-21T21:25:18.896Z,72.10
2019-04-21T21:27:43.834Z,72.90
2019-04-21T21:30:21.585Z,74.80
2019-04-21T21:32:56.153Z,75.40
2019-04-21T21:35:25.962Z,75.80
2019-04-21T21:38:09.944Z,76.90
2019-04-21T21:40:35.993Z,76.20
2019-04-21T21:42:53.255Z,77.90
2019-04-21T21:45:28.560Z,80.40
2019-04-21T21:48:12.651Z,80.70
2019-04-21T21:50:42.112Z,83.50
2019-04-21T21:53:10.519Z,85.20
2019-04-21T21:55:35.909Z,88.00
2019-04-21T21:58:08.519Z,91.30
2019-04-21T22:00:45.497Z,92.70
2019-04-21T22:03:26.636Z,95.20
2019-04-21T22:05:53.415Z,97.40
2019-04-21T22:08:20.690Z,98.90
2019-04-21T22:10:52.887Z,99.60
2019-04-21T22:13:32.757Z,99.90
2019-04-21T22:16:03.846Z,99.90
2019-04-21T22:18:43.251Z,99.90
2019-04-21T22:21:17.295Z,99.90
2019-04-21T22:23:43.835Z,99.90
2019-04-21T22:26:07.615Z,99.90
2019-04-21T22:28:39.723Z,99.90
2019-04-21T22:31:18.216Z,99.90
2019-04-21T22:33:48.289Z,99.90
2019-04-21T22:36:31.397Z,99.90
2019-04-21T22:39:09.322Z,99.90
2019-04-21T22:41:30.924Z,99.90
2019-04-21T22:43:55.932Z,99.90
2019-04-21T22:46:28.572Z,99.90
2019-04-21T22:49:05.515Z,99.90
2019-04-21T22:51:37.445Z,99.90
2019-04-21T22:54:06.148Z,99.90
2019-04-21T22:56:50.464Z,99.90
2019-04-21T22:59:16.017Z,99.90
2019-04-21T23:01:47.435Z,99.90
2019-04-21T23:04:15.932Z,99.90
2019-04-21T23:06:48.787Z,99.90
2019-04-21T23:09:19.738Z,99.90
2019-04-21T23:11:53.141Z,99.90
2019-04-21T23:14:23.757Z,99.90
2019-04-21T23:17:14.958Z,99.90
2019-04-21T23:19:38.808Z,99.90
2019-04-21T23:22:20.292Z,99.90
2019-04-21T23:24:56.093Z,99.90
2019-04-21T23:27:17.249Z,99.90
2019-04-21T23:30:00.524Z,99.90
2019-04-21T23:32:23.573Z,99.90
2019-04-21T23:34:45.346Z,99.90
2019-04-21T23:37:20.267Z,99.90
2019-04-21T23:39:54.191Z,99.90
2019-04-21T23:42:30.562Z,99.90
2019-04-21T23:44:58.108Z,99.90
2019-04-21T23:47:39.542Z,99.90
2019-04-21T23:50:07.372Z,99.90
2019-04-21T23:52:32.141Z,99.90
2019-04-21T23:55:03.294Z,99.90
2019-04-21T23:57:39.723Z,99.90
